Main page
METAR-TAF:

METAR-TAF

Airports :

Kadala Airport

Chita, Russia

latitude: 52-05N, longitude: 113-29E, elevation: 685 m

Current weather observation

The report was made 30 minutes ago, at 13:00 UTC
Wind 6 kt from the West/Northwest
Temperature -4°C
Humidity 42%
Pressure 1012 hPa
Visibility 10 km or more

METAR: UIAA 201300Z AUTO 30003MPS 9999 NCD M04/M15 Q1012 RMK QFE700/0934

Time: 22:30 (13:30 UTC)

Forecast

The report was made 2 hours and 30 minutes ago, at 11:00 UTC
Forecast valid from 20 at 12 UTC to 21 at 12 UTC
Wind 6 kt from the Southwest with gusts up to 16 kt
Visibility 10 km or more
Temporary
from 20 at 12 UTC to 20 at 15 UTC
Wind 10 kt from the West with gusts up to 19 kt

TAF: UIAA 201100Z 2012/2112 22003G08MPS 9999 NSC TEMPO 2012/2015 28005G10MPS

Weather observations and forecasts of more than 4000 airports (METAR and TAF reports).

The available stations are represented by yellow and red dots on the map.

Hover mouse over dot to see the name of the station.

Then click to see weather observations and forecasts.

To change the map : click on the green buttons with a black cross to zoom in, on the green button with a dash to zoom out, or on the green arrows for adjacent maps.


METAR-TAF: